Time;durP1;ratioP1;P1;durP2;ratioP2;P2;SDS_P1;SDS_P2;PMS_P1;PMS_P2;Temp;Humidity;BMP_temperature;BMP_pressure;BME280_temperature;BME280_humidity;BME280_pressure;Samples;Min_cycle;Max_cycle;Signal;HPM_P1;HPM_P2
2023/08/09 00:00:28;;;;;;;4.28;2.60;;;;;;;;;;6262413;28;20053;-76
2023/08/09 00:03:31;;;;;;;3.03;2.25;;;;;;;;;;6262673;28;20045;-79
2023/08/09 00:06:32;;;;;;;3.60;2.50;;;;;;;;;;6261055;28;20033;-78
2023/08/09 00:09:34;;;;;;;3.15;2.33;;;;;;;;;;6265108;28;20048;-79
2023/08/09 00:12:36;;;;;;;2.78;2.45;;;;;;;;;;6266385;28;20490;-77
2023/08/09 00:15:37;;;;;;;3.72;2.80;;;;;;;;;;6297458;28;20095;-76
2023/08/09 00:18:39;;;;;;;2.72;2.15;;;;;;;;;;6278278;28;20155;-76
2023/08/09 00:21:41;;;;;;;3.63;2.67;;;;;;;;;;6306867;28;20052;-78
2023/08/09 00:24:43;;;;;;;4.60;2.55;;;;;;;;;;6266594;28;20049;-75
2023/08/09 00:27:46;;;;;;;4.68;3.85;;;;;;;;;;6248077;28;20049;-77
2023/08/09 00:30:48;;;;;;;5.97;3.07;;;;;;;;;;6260899;28;20052;-78
2023/08/09 00:33:49;;;;;;;4.95;2.50;;;;;;;;;;6285529;28;20443;-78
2023/08/09 00:36:51;;;;;;;4.25;2.90;;;;;;;;;;6257765;28;20047;-76
2023/08/09 00:39:53;;;;;;;2.78;2.53;;;;;;;;;;6235865;28;20037;-74
2023/08/09 00:42:55;;;;;;;3.40;2.80;;;;;;;;;;6251896;28;20056;-75
2023/08/09 00:45:57;;;;;;;4.03;3.00;;;;;;;;;;6263942;28;20044;-75
2023/08/09 00:48:58;;;;;;;3.08;2.50;;;;;;;;;;6265741;28;20043;-78
2023/08/09 00:52:00;;;;;;;2.92;2.63;;;;;;;;;;6298650;28;20541;-79
2023/08/09 00:55:04;;;;;;;3.58;2.75;;;;;;;;;;6262219;28;20498;-79
2023/08/09 00:58:05;;;;;;;4.50;3.15;;;;;;;;;;6280718;28;20063;-77
2023/08/09 01:01:07;;;;;;;3.47;2.95;;;;;;;;;;6270406;28;20048;-80
2023/08/09 01:04:09;;;;;;;4.35;3.15;;;;;;;;;;6290167;28;20082;-79
2023/08/09 01:07:25;;;;;;;4.38;3.00;;;;;;;;;;6267930;28;20049;-79
2023/08/09 01:10:38;;;;;;;5.05;3.28;;;;;;;;;;6285567;28;20049;-79
2023/08/09 01:13:41;;;;;;;3.92;3.38;;;;;;;;;;6284335;28;20044;-80
2023/08/09 01:16:44;;;;;;;;;;;;;;;;;;6264739;28;20041;-79
2023/08/09 01:19:49;;;;;;;8.18;3.80;;;;;;;;;;6287564;28;20374;-79
2023/08/09 01:23:01;;;;;;;6.30;3.50;;;;;;;;;;6303196;28;20056;-78
2023/08/09 01:26:06;;;;;;;6.00;3.30;;;;;;;;;;6270213;28;20044;-77
2023/08/09 01:29:07;;;;;;;8.00;3.83;;;;;;;;;;6282435;28;20052;-79
2023/08/09 01:32:11;;;;;;;5.43;3.58;;;;;;;;;;6271129;28;20502;-77
2023/08/09 01:35:13;;;;;;;6.43;3.38;;;;;;;;;;6302286;28;20040;-77
2023/08/09 01:38:23;;;;;;;4.60;3.30;;;;;;;;;;6284499;28;20055;-77
2023/08/09 01:41:24;;;;;;;4.70;3.05;;;;;;;;;;6289733;28;20052;-77
2023/08/09 01:44:27;;;;;;;4.20;2.50;;;;;;;;;;6297123;28;20053;-77
2023/08/09 01:47:29;;;;;;;4.77;2.20;;;;;;;;;;6287463;28;20051;-77
2023/08/09 01:50:30;;;;;;;3.85;2.22;;;;;;;;;;6300795;28;20075;-76
2023/08/09 01:53:32;;;;;;;3.58;2.45;;;;;;;;;;6288219;28;20578;-76
2023/08/09 01:56:35;;;;;;;2.78;2.40;;;;;;;;;;6287091;28;20036;-77
2023/08/09 01:59:38;;;;;;;3.35;2.47;;;;;;;;;;6284260;28;20040;-79
2023/08/09 02:02:40;;;;;;;3.70;2.10;;;;;;;;;;6269384;28;20044;-78
2023/08/09 02:05:42;;;;;;;2.60;2.22;;;;;;;;;;6257663;28;20036;-79
2023/08/09 02:08:44;;;;;;;3.13;2.10;;;;;;;;;;6269585;28;20048;-78
2023/08/09 02:11:46;;;;;;;3.30;2.45;;;;;;;;;;6245855;28;20068;-78
2023/08/09 02:14:48;;;;;;;4.13;2.13;;;;;;;;;;6258969;28;20048;-78
2023/08/09 02:17:50;;;;;;;2.22;2.03;;;;;;;;;;6275871;28;20123;-77
2023/08/09 02:20:52;;;;;;;2.83;2.15;;;;;;;;;;6260129;28;20131;-78
2023/08/09 02:23:54;;;;;;;4.18;2.20;;;;;;;;;;6259545;28;20045;-77
2023/08/09 02:26:56;;;;;;;2.40;1.95;;;;;;;;;;6241225;28;20184;-78
2023/08/09 02:29:58;;;;;;;1.80;1.42;;;;;;;;;;6270304;28;20057;-77
2023/08/09 02:33:00;;;;;;;1.70;1.60;;;;;;;;;;6271759;28;20063;-76
2023/08/09 02:36:02;;;;;;;2.33;1.55;;;;;;;;;;6270562;28;20045;-76
2023/08/09 02:39:05;;;;;;;1.52;1.42;;;;;;;;;;6255406;28;20041;-77
2023/08/09 02:42:07;;;;;;;2.30;1.50;;;;;;;;;;6257292;28;20518;-76
2023/08/09 02:45:09;;;;;;;2.08;1.63;;;;;;;;;;6266407;28;20041;-76
2023/08/09 02:48:11;;;;;;;2.33;1.35;;;;;;;;;;6284955;28;20054;-76
2023/08/09 02:51:13;;;;;;;;;;;;;;;;;;6258859;28;20523;-78
2023/08/09 02:54:15;;;;;;;1.30;1.20;;;;;;;;;;6265868;28;19927;-77
2023/08/09 02:57:17;;;;;;;1.17;1.10;;;;;;;;;;6295272;28;20075;-77
2023/08/09 03:00:19;;;;;;;2.27;1.30;;;;;;;;;;6263520;28;20048;-78
2023/08/09 03:03:21;;;;;;;1.45;1.20;;;;;;;;;;6269262;28;20528;-78
2023/08/09 03:06:24;;;;;;;0.80;0.80;;;;;;;;;;6276080;28;20045;-77
2023/08/09 03:09:26;;;;;;;1.20;1.00;;;;;;;;;;6281622;28;20133;-76
2023/08/09 03:12:29;;;;;;;1.73;1.00;;;;;;;;;;6285498;28;20119;-78
2023/08/09 03:15:30;;;;;;;1.23;1.10;;;;;;;;;;6257482;28;20150;-78
2023/08/09 03:18:32;;;;;;;1.63;0.88;;;;;;;;;;6296066;28;20044;-76
2023/08/09 03:21:34;;;;;;;1.02;0.93;;;;;;;;;;6283219;28;20533;-78
2023/08/09 03:24:36;;;;;;;1.20;0.83;;;;;;;;;;6271712;28;20048;-77
2023/08/09 03:27:38;;;;;;;1.67;0.87;;;;;;;;;;6266991;28;20048;-76
2023/08/09 03:30:40;;;;;;;0.88;0.73;;;;;;;;;;6282912;28;20119;-77
2023/08/09 03:33:43;;;;;;;0.80;0.75;;;;;;;;;;6287521;28;20536;-77
2023/08/09 03:36:45;;;;;;;1.25;0.90;;;;;;;;;;6267336;28;20125;-76
2023/08/09 03:39:46;;;;;;;0.70;0.70;;;;;;;;;;6275104;28;20450;-79
2023/08/09 03:42:48;;;;;;;0.70;0.70;;;;;;;;;;6303272;28;20044;-78
2023/08/09 03:45:51;;;;;;;0.70;0.70;;;;;;;;;;6303328;28;20041;-79
2023/08/09 03:48:54;;;;;;;0.90;0.70;;;;;;;;;;6269070;28;20128;-78
2023/08/09 03:51:56;;;;;;;1.33;0.60;;;;;;;;;;6267018;28;20051;-76
2023/08/09 03:54:58;;;;;;;0.95;0.80;;;;;;;;;;6277885;28;20253;-76
2023/08/09 03:58:00;;;;;;;1.92;0.82;;;;;;;;;;6267775;28;20045;-77
2023/08/09 04:01:02;;;;;;;2.78;0.80;;;;;;;;;;6274557;28;20056;-76
2023/08/09 04:04:05;;;;;;;1.45;0.70;;;;;;;;;;6254286;28;20476;-79
2023/08/09 04:07:09;;;;;;;1.38;0.95;;;;;;;;;;6286556;28;20040;-78
2023/08/09 04:10:12;;;;;;;1.83;1.10;;;;;;;;;;6285412;28;20036;-78
2023/08/09 04:13:14;;;;;;;1.73;0.90;;;;;;;;;;6293421;28;20045;-75
2023/08/09 04:16:15;;;;;;;1.35;0.68;;;;;;;;;;6301115;28;20123;-79
2023/08/09 04:19:17;;;;;;;0.30;0.30;;;;;;;;;;6269902;28;20040;-78
2023/08/09 04:22:19;;;;;;;0.75;0.30;;;;;;;;;;6289223;28;20056;-77
2023/08/09 04:25:21;;;;;;;0.50;0.40;;;;;;;;;;6289307;28;20059;-75
2023/08/09 04:28:24;;;;;;;0.70;0.45;;;;;;;;;;6302200;28;20049;-75
2023/08/09 04:31:26;;;;;;;0.40;0.33;;;;;;;;;;6284348;28;20048;-76
2023/08/09 04:34:29;;;;;;;0.30;0.30;;;;;;;;;;6280860;28;21012;-77
2023/08/09 04:37:30;;;;;;;0.13;0.13;;;;;;;;;;6283201;28;20521;-77
2023/08/09 04:40:34;;;;;;;0.47;0.40;;;;;;;;;;6283986;28;20417;-77
2023/08/09 04:43:37;;;;;;;0.93;0.38;;;;;;;;;;6281540;28;20140;-76
2023/08/09 04:46:39;;;;;;;0.98;0.30;;;;;;;;;;6247425;28;20512;-76
2023/08/09 04:49:41;;;;;;;0.30;0.30;;;;;;;;;;6280752;28;20044;-76
2023/08/09 04:52:42;;;;;;;0.40;0.40;;;;;;;;;;6282758;28;20422;-76
2023/08/09 04:55:44;;;;;;;0.47;0.30;;;;;;;;;;6280416;28;20044;-76
2023/08/09 04:58:46;;;;;;;0.68;0.47;;;;;;;;;;6282307;28;20079;-77
2023/08/09 05:01:47;;;;;;;0.30;0.30;;;;;;;;;;6283584;28;21009;-77
2023/08/09 05:04:49;;;;;;;0.50;0.40;;;;;;;;;;6280918;28;20419;-74
2023/08/09 05:07:51;;;;;;;0.50;0.30;;;;;;;;;;6251962;28;20507;-75
2023/08/09 05:10:53;;;;;;;0.52;0.40;;;;;;;;;;6255787;28;20054;-77
2023/08/09 05:13:54;;;;;;;0.50;0.40;;;;;;;;;;6254017;28;20082;-77
2023/08/09 05:16:56;;;;;;;1.13;0.30;;;;;;;;;;6254751;28;20454;-76
2023/08/09 05:19:58;;;;;;;0.50;0.50;;;;;;;;;;6238167;28;20044;-75
2023/08/09 05:23:00;;;;;;;2.25;0.40;;;;;;;;;;6256451;28;20045;-75
2023/08/09 05:26:01;;;;;;;3.65;0.60;;;;;;;;;;6255033;28;20037;-77
2023/08/09 05:29:03;;;;;;;1.08;0.40;;;;;;;;;;6253799;28;20037;-77
2023/08/09 05:32:05;;;;;;;0.63;0.43;;;;;;;;;;6261487;28;20048;-75
2023/08/09 05:35:08;;;;;;;0.37;0.37;;;;;;;;;;6277799;28;20041;-76
2023/08/09 05:38:10;;;;;;;0.43;0.30;;;;;;;;;;6259732;28;20615;-75
2023/08/09 05:41:12;;;;;;;1.75;0.30;;;;;;;;;;6254442;28;20037;-77
2023/08/09 05:44:13;;;;;;;1.08;0.20;;;;;;;;;;6252565;28;20095;-76
2023/08/09 05:47:15;;;;;;;0.52;0.40;;;;;;;;;;6253539;28;20495;-76
2023/08/09 05:50:17;;;;;;;0.75;0.30;;;;;;;;;;6250763;28;20041;-76
2023/08/09 05:53:19;;;;;;;0.77;0.38;;;;;;;;;;6267824;28;20159;-77
2023/08/09 05:56:20;;;;;;;1.02;0.30;;;;;;;;;;6253294;28;20522;-76
2023/08/09 05:59:22;;;;;;;0.40;0.40;;;;;;;;;;6275592;28;20060;-76
2023/08/09 06:02:24;;;;;;;0.47;0.38;;;;;;;;;;6276398;28;20055;-75
2023/08/09 06:05:26;;;;;;;0.40;0.20;;;;;;;;;;6250385;28;20072;-76
2023/08/09 06:08:28;;;;;;;0.93;0.60;;;;;;;;;;6255343;28;20055;-75
2023/08/09 06:11:29;;;;;;;1.13;0.60;;;;;;;;;;6254046;28;20045;-77
2023/08/09 06:14:32;;;;;;;1.00;0.60;;;;;;;;;;6255173;28;20052;-76
2023/08/09 06:17:34;;;;;;;1.30;0.40;;;;;;;;;;6278939;28;20036;-78
2023/08/09 06:20:36;;;;;;;2.17;0.60;;;;;;;;;;6269653;28;20036;-78
2023/08/09 06:23:37;;;;;;;1.00;0.47;;;;;;;;;;6297475;28;20591;-77
2023/08/09 06:26:39;;;;;;;0.50;0.40;;;;;;;;;;6261597;28;20150;-77
2023/08/09 06:29:41;;;;;;;1.05;0.47;;;;;;;;;;6280137;28;20040;-75
2023/08/09 06:32:42;;;;;;;1.02;0.43;;;;;;;;;;6264711;28;20048;-76
2023/08/09 06:35:44;;;;;;;0.82;0.50;;;;;;;;;;6279073;28;20055;-75
2023/08/09 06:38:46;;;;;;;0.50;0.47;;;;;;;;;;6276260;28;20413;-76
2023/08/09 06:41:48;;;;;;;3.80;0.40;;;;;;;;;;6281340;28;20083;-74
2023/08/09 06:44:50;;;;;;;1.07;0.50;;;;;;;;;;6277549;28;20125;-76
2023/08/09 06:47:51;;;;;;;0.60;0.57;;;;;;;;;;6240922;28;20044;-75
2023/08/09 06:50:53;;;;;;;0.80;0.60;;;;;;;;;;6256896;28;20064;-74
2023/08/09 06:53:55;;;;;;;0.77;0.50;;;;;;;;;;6228406;28;20048;-77
2023/08/09 06:56:56;;;;;;;0.70;0.60;;;;;;;;;;6251995;28;20126;-76
2023/08/09 06:59:59;;;;;;;1.20;0.73;;;;;;;;;;6244928;28;20564;-75
2023/08/09 07:03:01;;;;;;;0.70;0.70;;;;;;;;;;6253193;28;20057;-76
2023/08/09 07:06:03;;;;;;;1.10;0.60;;;;;;;;;;6252776;28;20045;-76
2023/08/09 07:09:05;;;;;;;0.77;0.77;;;;;;;;;;6245820;28;20599;-76
2023/08/09 07:12:07;;;;;;;0.82;0.60;;;;;;;;;;6255351;28;20617;-77
2023/08/09 07:15:10;;;;;;;0.80;0.80;;;;;;;;;;6254484;28;20061;-77
2023/08/09 07:18:13;;;;;;;0.70;0.70;;;;;;;;;;6272569;28;20529;-76
2023/08/09 07:21:15;;;;;;;1.38;0.73;;;;;;;;;;6256687;28;20056;-75
2023/08/09 07:24:16;;;;;;;1.88;0.80;;;;;;;;;;6259755;28;20048;-76
2023/08/09 07:27:18;;;;;;;2.67;1.05;;;;;;;;;;6281335;28;20114;-76
2023/08/09 07:30:20;;;;;;;1.55;0.70;;;;;;;;;;6263005;28;20056;-76
2023/08/09 07:33:21;;;;;;;1.88;0.85;;;;;;;;;;6255927;28;20626;-75
2023/08/09 07:36:23;;;;;;;2.15;0.80;;;;;;;;;;6255707;28;20058;-76
2023/08/09 07:39:28;;;;;;;2.25;0.80;;;;;;;;;;6245135;28;20121;-77
2023/08/09 07:42:31;;;;;;;1.33;0.70;;;;;;;;;;6256024;28;20054;-77
2023/08/09 07:45:32;;;;;;;0.73;0.73;;;;;;;;;;6253080;28;20071;-76
2023/08/09 07:48:34;;;;;;;2.28;0.63;;;;;;;;;;6255379;28;20084;-74
2023/08/09 07:51:36;;;;;;;1.15;0.75;;;;;;;;;;6254166;28;20673;-76
2023/08/09 07:54:37;;;;;;;0.98;0.80;;;;;;;;;;6255366;28;20044;-76
2023/08/09 07:57:39;;;;;;;0.70;0.68;;;;;;;;;;6254643;28;20041;-77
2023/08/09 08:00:41;;;;;;;0.67;0.60;;;;;;;;;;6254890;28;20414;-76
2023/08/09 08:04:03;;;;;;;1.08;0.55;;;;;;;;;;6254607;28;20045;-74
2023/08/09 08:07:05;;;;;;;2.13;0.80;;;;;;;;;;6253896;28;20053;-76
2023/08/09 08:10:13;;;;;;;1.30;0.75;;;;;;;;;;6254714;28;20071;-76
2023/08/09 08:13:15;;;;;;;0.85;0.70;;;;;;;;;;6253520;28;20052;-73
2023/08/09 08:16:17;;;;;;;2.97;0.80;;;;;;;;;;6253229;28;20620;-73
2023/08/09 08:19:19;;;;;;;0.88;0.60;;;;;;;;;;6260449;28;20586;-76
2023/08/09 08:22:21;;;;;;;1.65;0.75;;;;;;;;;;6258708;28;20843;-76
2023/08/09 08:25:23;;;;;;;1.00;0.90;;;;;;;;;;6258246;28;20548;-75
2023/08/09 08:28:25;;;;;;;0.98;0.70;;;;;;;;;;6252951;28;20052;-76
2023/08/09 08:31:27;;;;;;;2.70;1.05;;;;;;;;;;6259942;28;20064;-76
2023/08/09 08:34:31;;;;;;;0.90;0.70;;;;;;;;;;6284991;28;20399;-76
2023/08/09 08:37:34;;;;;;;0.50;0.50;;;;;;;;;;6297862;28;20044;-76
2023/08/09 08:40:35;;;;;;;0.90;0.80;;;;;;;;;;6277769;28;20085;-76
2023/08/09 08:43:38;;;;;;;1.27;0.70;;;;;;;;;;6282455;28;20037;-76
2023/08/09 08:46:41;;;;;;;2.20;0.70;;;;;;;;;;6283723;28;20418;-76
2023/08/09 08:49:44;;;;;;;;;;;;;;;;;;6284811;28;20533;-76
2023/08/09 08:52:48;;;;;;;0.95;0.60;;;;;;;;;;6306301;28;20378;-75
2023/08/09 08:55:51;;;;;;;1.02;0.75;;;;;;;;;;6291582;28;20087;-74
2023/08/09 08:58:53;;;;;;;1.38;0.73;;;;;;;;;;6295461;28;20063;-76
2023/08/09 09:01:55;;;;;;;0.80;0.65;;;;;;;;;;6302201;28;20047;-74
2023/08/09 09:04:56;;;;;;;2.88;0.80;;;;;;;;;;6301090;28;20044;-75
2023/08/09 09:07:58;;;;;;;2.70;0.75;;;;;;;;;;6283411;28;20044;-75
2023/08/09 09:11:00;;;;;;;1.45;0.70;;;;;;;;;;6283596;28;20108;-76
2023/08/09 09:14:02;;;;;;;1.48;0.70;;;;;;;;;;6301183;28;20059;-76
2023/08/09 09:17:04;;;;;;;1.30;0.60;;;;;;;;;;6287792;28;20064;-76
2023/08/09 09:20:10;;;;;;;2.88;0.70;;;;;;;;;;6284830;28;20666;-75
2023/08/09 09:23:27;;;;;;;0.60;0.60;;;;;;;;;;6300147;28;20067;-75
2023/08/09 09:26:29;;;;;;;0.75;0.63;;;;;;;;;;6286315;28;20456;-77
2023/08/09 09:29:34;;;;;;;1.50;0.70;;;;;;;;;;6284891;28;20502;-75
2023/08/09 09:32:36;;;;;;;1.52;0.80;;;;;;;;;;6292149;28;20064;-76
2023/08/09 09:35:38;;;;;;;1.20;0.50;;;;;;;;;;6289520;28;20098;-77
2023/08/09 09:38:40;;;;;;;1.35;0.70;;;;;;;;;;6286059;28;20501;-74
2023/08/09 09:41:48;;;;;;;1.73;0.73;;;;;;;;;;6275440;28;20051;-75
2023/08/09 09:44:49;;;;;;;1.75;1.25;;;;;;;;;;6282094;28;20036;-76
2023/08/09 09:47:54;;;;;;;1.13;0.70;;;;;;;;;;6282891;28;20040;-77
2023/08/09 09:51:02;;;;;;;0.60;0.60;;;;;;;;;;6284308;28;20048;-77
2023/08/09 09:54:04;;;;;;;0.77;0.70;;;;;;;;;;6282191;28;20048;-77
2023/08/09 09:57:06;;;;;;;2.00;0.80;;;;;;;;;;6284392;28;20055;-77
2023/08/09 10:00:20;;;;;;;1.30;1.20;;;;;;;;;;6279019;28;20044;-74
2023/08/09 10:03:23;;;;;;;1.98;0.80;;;;;;;;;;6281844;28;20048;-76
2023/08/09 10:06:31;;;;;;;1.08;0.70;;;;;;;;;;6264002;28;20078;-77
2023/08/09 10:09:34;;;;;;;1.25;0.70;;;;;;;;;;6275816;28;20604;-75
2023/08/09 10:12:43;;;;;;;1.13;0.80;;;;;;;;;;6277424;28;20045;-76
2023/08/09 10:15:53;;;;;;;0.65;0.60;;;;;;;;;;6268694;28;20048;-76
2023/08/09 10:19:00;;;;;;;0.70;0.55;;;;;;;;;;6253991;28;20037;-76
2023/08/09 10:22:03;;;;;;;0.65;0.63;;;;;;;;;;6278034;28;20037;-75
2023/08/09 10:25:06;;;;;;;1.05;0.68;;;;;;;;;;6248729;28;20041;-74
2023/08/09 10:28:08;;;;;;;1.80;0.70;;;;;;;;;;6249077;28;20499;-74
2023/08/09 10:31:10;;;;;;;1.00;0.80;;;;;;;;;;6250236;28;20041;-76
2023/08/09 10:34:13;;;;;;;1.98;0.60;;;;;;;;;;6267238;28;20049;-74
2023/08/09 10:37:23;;;;;;;1.23;0.63;;;;;;;;;;6251816;28;20143;-76
2023/08/09 10:40:26;;;;;;;1.15;0.82;;;;;;;;;;6248809;28;20052;-75
2023/08/09 10:43:30;;;;;;;1.30;0.80;;;;;;;;;;6246825;28;20070;-76
2023/08/09 10:46:34;;;;;;;2.33;0.98;;;;;;;;;;6246375;28;20049;-76
2023/08/09 10:49:48;;;;;;;1.50;0.80;;;;;;;;;;6264240;28;20514;-75
2023/08/09 10:52:50;;;;;;;1.10;0.60;;;;;;;;;;6245158;28;20214;-76
2023/08/09 10:55:55;;;;;;;0.77;0.70;;;;;;;;;;6249727;28;20790;-75
2023/08/09 10:59:14;;;;;;;1.67;0.70;;;;;;;;;;6245964;28;20041;-75
2023/08/09 11:02:19;;;;;;;1.73;0.80;;;;;;;;;;6271337;28;20512;-73
2023/08/09 11:05:22;;;;;;;2.70;0.70;;;;;;;;;;6248857;28;20056;-74
2023/08/09 11:08:29;;;;;;;;;;;;;;;;;;6252764;28;20071;-74
2023/08/09 11:11:30;;;;;;;1.02;0.85;;;;;;;;;;6255682;28;20321;-76
2023/08/09 11:14:32;;;;;;;1.20;0.87;;;;;;;;;;6254619;28;20063;-77
2023/08/09 11:17:37;;;;;;;1.50;0.98;;;;;;;;;;6257028;28;20041;-75
2023/08/09 11:20:39;;;;;;;1.75;1.02;;;;;;;;;;6254900;28;20134;-75
2023/08/09 11:23:41;;;;;;;2.22;1.15;;;;;;;;;;6252311;28;20036;-75
2023/08/09 11:26:52;;;;;;;1.65;0.90;;;;;;;;;;6256753;28;20049;-76
2023/08/09 11:29:54;;;;;;;1.92;0.80;;;;;;;;;;6252113;28;20073;-76
2023/08/09 11:33:01;;;;;;;2.20;0.97;;;;;;;;;;6255288;28;20086;-77
2023/08/09 11:36:03;;;;;;;1.50;1.00;;;;;;;;;;6255887;28;20041;-75
2023/08/09 11:39:05;;;;;;;1.52;0.88;;;;;;;;;;6255416;28;20041;-77
2023/08/09 11:42:07;;;;;;;1.35;0.90;;;;;;;;;;6252372;28;20174;-75
2023/08/09 11:45:09;;;;;;;0.93;0.85;;;;;;;;;;6284195;28;20118;-74
2023/08/09 11:48:26;;;;;;;2.10;1.00;;;;;;;;;;6262114;28;20593;-75
2023/08/09 11:51:30;;;;;;;1.10;1.00;;;;;;;;;;6256325;28;20127;-76
2023/08/09 11:54:32;;;;;;;0.98;0.85;;;;;;;;;;6257713;28;20040;-75
2023/08/09 11:57:35;;;;;;;1.17;1.00;;;;;;;;;;6259252;28;20786;-74
2023/08/09 12:00:40;;;;;;;1.63;0.80;;;;;;;;;;6257113;28;20052;-76
2023/08/09 12:03:45;;;;;;;2.85;0.95;;;;;;;;;;6244634;28;20048;-76
2023/08/09 12:06:57;;;;;;;1.77;1.05;;;;;;;;;;6260710;28;20078;-77
2023/08/09 12:10:02;;;;;;;1.10;1.00;;;;;;;;;;6258295;28;20120;-76
2023/08/09 12:13:05;;;;;;;1.52;0.90;;;;;;;;;;6239788;28;20179;-77
2023/08/09 12:16:07;;;;;;;;;;;;;;;;;;6273126;28;20503;-76
2023/08/09 12:19:08;;;;;;;1.55;0.82;;;;;;;;;;6258750;28;19921;-76
2023/08/09 12:22:10;;;;;;;0.90;0.85;;;;;;;;;;6283523;28;20052;-75
2023/08/09 12:25:12;;;;;;;1.40;0.68;;;;;;;;;;6267282;28;20047;-76
2023/08/09 12:28:14;;;;;;;1.30;1.00;;;;;;;;;;6264170;28;20517;-77
2023/08/09 12:31:16;;;;;;;1.50;1.00;;;;;;;;;;6281945;28;20129;-76
2023/08/09 12:34:18;;;;;;;1.05;0.80;;;;;;;;;;6281303;28;20128;-74
2023/08/09 12:37:20;;;;;;;1.23;0.80;;;;;;;;;;6283413;28;20079;-75
2023/08/09 12:40:21;;;;;;;1.20;1.10;;;;;;;;;;6294174;28;20045;-75
2023/08/09 12:43:23;;;;;;;2.70;0.93;;;;;;;;;;6282169;28;20045;-74
2023/08/09 12:46:25;;;;;;;1.73;1.00;;;;;;;;;;6264919;28;20045;-76
2023/08/09 12:49:27;;;;;;;1.98;1.15;;;;;;;;;;6283018;28;20182;-76
2023/08/09 12:52:28;;;;;;;1.08;0.85;;;;;;;;;;6266734;28;20052;-75
2023/08/09 12:55:30;;;;;;;2.58;1.00;;;;;;;;;;6248356;28;20037;-73
2023/08/09 12:58:33;;;;;;;1.97;0.90;;;;;;;;;;6286292;28;20044;-77
2023/08/09 13:01:35;;;;;;;1.42;1.13;;;;;;;;;;6275337;28;20040;-74
2023/08/09 13:04:37;;;;;;;;;;;;;;;;;;6264252;28;20048;-76
2023/08/09 13:07:39;;;;;;;1.98;0.93;;;;;;;;;;6242341;28;20306;-76
2023/08/09 13:10:41;;;;;;;2.88;1.42;;;;;;;;;;6255935;28;20037;-77
2023/08/09 13:13:42;;;;;;;36.87;19.90;;;;;;;;;;6256578;28;20136;-77
2023/08/09 13:16:44;;;;;;;2.00;0.83;;;;;;;;;;6253554;28;20439;-76
2023/08/09 13:19:47;;;;;;;2.33;0.90;;;;;;;;;;6253462;28;20048;-77
2023/08/09 13:22:49;;;;;;;;;;;;;;;;;;6255976;28;20522;-76
2023/08/09 13:25:50;;;;;;;3.35;1.00;;;;;;;;;;6256824;28;19921;-76
2023/08/09 13:28:52;;;;;;;1.25;1.00;;;;;;;;;;6238731;28;20056;-75
2023/08/09 13:31:53;;;;;;;2.25;1.05;;;;;;;;;;6248459;28;20041;-74
2023/08/09 13:34:55;;;;;;;0.80;0.80;;;;;;;;;;6260103;28;20048;-75
2023/08/09 13:37:57;;;;;;;1.52;1.00;;;;;;;;;;6237545;28;20053;-75
2023/08/09 13:40:59;;;;;;;1.90;1.10;;;;;;;;;;6252970;28;20040;-75
2023/08/09 13:44:01;;;;;;;1.50;0.80;;;;;;;;;;6255687;28;20048;-76
2023/08/09 13:47:03;;;;;;;1.13;1.00;;;;;;;;;;6221908;28;20392;-75
2023/08/09 13:50:06;;;;;;;27.40;19.20;;;;;;;;;;6252880;28;20045;-74
2023/08/09 13:53:08;;;;;;;8.82;5.30;;;;;;;;;;6240428;28;21062;-75
2023/08/09 13:56:09;;;;;;;1.50;1.37;;;;;;;;;;6256358;28;20044;-76
2023/08/09 13:59:11;;;;;;;1.90;1.00;;;;;;;;;;6256213;28;20045;-76
2023/08/09 14:02:13;;;;;;;1.70;1.30;;;;;;;;;;6257424;28;20077;-74
2023/08/09 14:05:15;;;;;;;1.50;1.20;;;;;;;;;;6257084;28;20041;-77
2023/08/09 14:08:17;;;;;;;2.28;1.17;;;;;;;;;;6253325;28;20781;-77
2023/08/09 14:11:19;;;;;;;1.73;1.15;;;;;;;;;;6254872;28;20526;-75
2023/08/09 14:14:20;;;;;;;2.47;1.20;;;;;;;;;;6251415;28;20139;-76
2023/08/09 14:17:22;;;;;;;3.50;1.10;;;;;;;;;;6250761;28;20056;-76
2023/08/09 14:20:24;;;;;;;2.08;1.17;;;;;;;;;;6235901;28;20557;-76
2023/08/09 14:23:26;;;;;;;1.25;1.00;;;;;;;;;;6250314;28;20501;-76
2023/08/09 14:26:27;;;;;;;1.15;1.05;;;;;;;;;;6254800;28;21629;-74
2023/08/09 14:29:29;;;;;;;2.67;1.25;;;;;;;;;;6252407;28;20055;-76
2023/08/09 14:32:31;;;;;;;1.30;1.00;;;;;;;;;;6253408;28;20037;-77
2023/08/09 14:35:32;;;;;;;3.05;1.70;;;;;;;;;;6259757;28;20554;-75
2023/08/09 14:38:35;;;;;;;21.88;14.75;;;;;;;;;;6247662;28;20041;-77
2023/08/09 14:41:37;;;;;;;2.05;1.17;;;;;;;;;;6278982;28;20044;-76
2023/08/09 14:44:39;;;;;;;1.30;1.20;;;;;;;;;;6277960;28;20134;-76
2023/08/09 14:47:40;;;;;;;1.13;0.95;;;;;;;;;;6278428;28;20472;-77
2023/08/09 14:50:42;;;;;;;1.50;1.33;;;;;;;;;;6255339;28;20673;-76
2023/08/09 14:53:45;;;;;;;;;;;;;;;;;;6244856;28;20044;-75
2023/08/09 14:56:46;;;;;;;1.58;1.20;;;;;;;;;;6240907;28;19921;-77
2023/08/09 14:59:48;;;;;;;1.45;1.33;;;;;;;;;;6249929;28;20087;-76
2023/08/09 15:02:50;;;;;;;2.10;1.20;;;;;;;;;;6254360;28;20049;-76
2023/08/09 15:05:52;;;;;;;2.17;1.15;;;;;;;;;;6228597;28;20098;-74
2023/08/09 15:08:53;;;;;;;4.35;1.42;;;;;;;;;;6247107;28;20055;-75
2023/08/09 15:11:55;;;;;;;4.07;1.57;;;;;;;;;;6264528;28;20083;-77
2023/08/09 15:14:58;;;;;;;1.33;1.23;;;;;;;;;;6251925;28;20152;-75
2023/08/09 15:18:01;;;;;;;2.97;1.20;;;;;;;;;;6243835;28;20574;-74
2023/08/09 15:21:03;;;;;;;2.08;1.23;;;;;;;;;;6252861;28;20657;-75
2023/08/09 15:24:05;;;;;;;3.33;1.47;;;;;;;;;;6253403;28;20068;-74
2023/08/09 15:27:07;;;;;;;2.83;1.65;;;;;;;;;;6253984;28;20048;-76
2023/08/09 15:30:10;;;;;;;1.47;1.30;;;;;;;;;;6252715;28;20049;-76
2023/08/09 15:33:11;;;;;;;4.10;1.35;;;;;;;;;;6266645;28;20045;-75
2023/08/09 15:36:14;;;;;;;2.73;1.37;;;;;;;;;;6277209;28;20040;-75
2023/08/09 15:39:16;;;;;;;1.75;1.42;;;;;;;;;;6264398;28;20044;-72
2023/08/09 15:42:17;;;;;;;1.88;1.52;;;;;;;;;;6272462;28;20055;-76
2023/08/09 15:45:19;;;;;;;1.30;1.20;;;;;;;;;;6273948;28;20040;-76
2023/08/09 15:48:21;;;;;;;1.67;1.55;;;;;;;;;;6259173;28;20193;-72
2023/08/09 15:51:23;;;;;;;1.80;1.40;;;;;;;;;;6248909;28;20033;-74
2023/08/09 15:54:24;;;;;;;2.03;1.40;;;;;;;;;;6255068;28;20132;-77
2023/08/09 15:57:26;;;;;;;2.13;1.10;;;;;;;;;;6250045;28;20065;-75
2023/08/09 16:00:27;;;;;;;2.25;1.58;;;;;;;;;;6253625;28;20569;-76
2023/08/09 16:03:39;;;;;;;1.60;1.30;;;;;;;;;;6250000;28;20045;-76
2023/08/09 16:06:41;;;;;;;1.52;1.30;;;;;;;;;;6249194;28;20054;-74
2023/08/09 16:09:45;;;;;;;2.92;1.38;;;;;;;;;;6235573;28;20077;-76
2023/08/09 16:12:47;;;;;;;2.33;1.50;;;;;;;;;;6248240;28;20045;-76
2023/08/09 16:15:49;;;;;;;2.63;1.37;;;;;;;;;;6244433;28;20136;-75
2023/08/09 16:18:51;;;;;;;2.65;1.38;;;;;;;;;;6281842;28;20049;-74
2023/08/09 16:21:52;;;;;;;2.05;1.40;;;;;;;;;;6248491;28;20132;-73
2023/08/09 16:24:54;;;;;;;2.13;1.73;;;;;;;;;;6253205;28;20132;-74
2023/08/09 16:27:56;;;;;;;2.28;1.50;;;;;;;;;;6251668;28;20080;-74
2023/08/09 16:30:57;;;;;;;2.03;1.70;;;;;;;;;;6253940;28;20414;-75
2023/08/09 16:33:59;;;;;;;1.80;1.40;;;;;;;;;;6252569;28;20439;-76
2023/08/09 16:37:01;;;;;;;2.13;1.60;;;;;;;;;;6251208;28;20041;-74
2023/08/09 16:40:04;;;;;;;1.63;1.45;;;;;;;;;;6257477;28;20041;-75
2023/08/09 16:43:06;;;;;;;1.50;1.38;;;;;;;;;;6255994;28;20052;-75
2023/08/09 16:46:08;;;;;;;1.65;1.50;;;;;;;;;;6274989;28;20040;-76
2023/08/09 16:49:10;;;;;;;2.33;1.90;;;;;;;;;;6280131;28;20047;-77
2023/08/09 16:52:11;;;;;;;2.73;1.77;;;;;;;;;;6284283;28;20041;-77
2023/08/09 16:55:18;;;;;;;2.22;1.50;;;;;;;;;;6285834;28;20647;-78
2023/08/09 16:58:20;;;;;;;1.85;1.58;;;;;;;;;;6256618;28;20124;-77
2023/08/09 17:01:22;;;;;;;2.13;1.80;;;;;;;;;;6245351;28;20862;-78
2023/08/09 17:04:25;;;;;;;2.20;1.70;;;;;;;;;;6244845;28;20045;-78
2023/08/09 17:07:26;;;;;;;6.97;1.65;;;;;;;;;;6243485;28;20044;-77
2023/08/09 17:10:30;;;;;;;1.85;1.50;;;;;;;;;;6260384;28;20056;-79
2023/08/09 17:13:32;;;;;;;1.73;1.55;;;;;;;;;;6261052;28;20045;-78
2023/08/09 17:16:34;;;;;;;1.92;1.70;;;;;;;;;;6262400;28;20052;-79
2023/08/09 17:19:36;;;;;;;2.88;1.70;;;;;;;;;;6262102;28;20049;-78
2023/08/09 17:22:39;;;;;;;2.42;1.80;;;;;;;;;;6243020;28;20531;-79
2023/08/09 17:25:40;;;;;;;;;;;;;;;;;;6265785;28;20202;-79
2023/08/09 17:28:42;;;;;;;1.98;1.77;;;;;;;;;;6262249;28;19929;-78
2023/08/09 17:31:43;;;;;;;2.40;1.88;;;;;;;;;;6284906;28;20047;-78
2023/08/09 17:34:45;;;;;;;2.38;1.85;;;;;;;;;;6266403;28;20676;-79
2023/08/09 17:37:47;;;;;;;2.88;1.90;;;;;;;;;;6244513;28;20057;-78
2023/08/09 17:40:48;;;;;;;2.28;1.75;;;;;;;;;;6265235;28;20049;-79
2023/08/09 17:43:50;;;;;;;2.67;1.90;;;;;;;;;;6261130;28;20115;-78
2023/08/09 17:46:52;;;;;;;3.78;1.90;;;;;;;;;;6262450;28;20669;-79
2023/08/09 17:49:57;;;;;;;1.98;1.77;;;;;;;;;;6258817;28;20049;-78
2023/08/09 17:52:58;;;;;;;2.92;1.85;;;;;;;;;;6259695;28;20045;-77
2023/08/09 17:56:00;;;;;;;2.30;2.03;;;;;;;;;;6244694;28;20122;-78
2023/08/09 17:59:03;;;;;;;1.73;1.63;;;;;;;;;;6260021;28;20056;-79
2023/08/09 18:02:06;;;;;;;2.08;1.85;;;;;;;;;;6244872;28;20049;-78
2023/08/09 18:05:09;;;;;;;4.20;2.08;;;;;;;;;;6257863;28;20419;-77
2023/08/09 18:08:11;;;;;;;2.75;1.98;;;;;;;;;;6257789;28;20048;-77
2023/08/09 18:11:13;;;;;;;2.38;2.15;;;;;;;;;;6261573;28;20040;-77
2023/08/09 18:14:14;;;;;;;2.42;2.00;;;;;;;;;;6245256;28;20052;-78
2023/08/09 18:17:17;;;;;;;2.03;1.83;;;;;;;;;;6243391;28;20047;-78